Time;durP1;ratioP1;P1;durP2;ratioP2;P2;SDS_P1;SDS_P2;PMS_P1;PMS_P2;Temp;Humidity;BMP_temperature;BMP_pressure;BME280_temperature;BME280_humidity;BME280_pressure;Samples;Min_cycle;Max_cycle;Signal;HPM_P1;HPM_P2
2022/05/13 00:02:22;;;;;;;4.07;0.50;;;16.20;64.60;;;;;;5056292;28;20463;-74
2022/05/13 00:04:48;;;;;;;2.72;0.40;;;16.10;64.60;;;;;;5056060;28;20021;-73
2022/05/13 00:07:14;;;;;;;5.03;0.55;;;16.10;64.90;;;;;;5056080;28;20439;-73
2022/05/13 00:10:00;;;;;;;4.20;0.38;;;16.00;65.10;;;;;;5055993;28;20096;-73
2022/05/13 00:12:30;;;;;;;3.63;0.50;;;16.00;65.10;;;;;;5055788;28;20021;-73
2022/05/13 00:14:57;;;;;;;4.28;0.50;;;16.00;65.20;;;;;;5055761;28;20388;-73
2022/05/13 00:17:24;;;;;;;4.15;0.50;;;16.00;65.30;;;;;;5055692;28;20040;-73
2022/05/13 00:19:51;;;;;;;6.50;0.70;;;16.10;65.50;;;;;;5055461;28;20468;-73
2022/05/13 00:22:18;;;;;;;6.28;0.52;;;16.10;65.50;;;;;;5055359;28;20032;-73
2022/05/13 00:24:45;;;;;;;5.63;0.70;;;16.00;65.80;;;;;;5055941;28;20112;-73
2022/05/13 00:27:10;;;;;;;4.75;0.40;;;16.00;66.00;;;;;;5055627;28;20033;-74
2022/05/13 00:29:36;;;;;;;3.60;0.60;;;16.00;66.20;;;;;;5055556;28;20055;-73
2022/05/13 00:32:02;;;;;;;5.55;0.63;;;16.00;66.20;;;;;;5055172;28;20025;-74
2022/05/13 00:34:28;;;;;;;5.60;0.73;;;15.90;66.10;;;;;;5055368;28;20029;-74
2022/05/13 00:36:53;;;;;;;5.28;0.40;;;15.90;66.30;;;;;;5055502;28;20037;-74
2022/05/13 00:39:19;;;;;;;3.45;0.60;;;15.80;66.30;;;;;;5055601;28;20017;-74
2022/05/13 00:41:46;;;;;;;5.07;0.47;;;15.80;66.40;;;;;;5055170;28;20037;-74
2022/05/13 00:44:12;;;;;;;3.72;0.60;;;15.70;66.60;;;;;;5055349;28;20035;-73
2022/05/13 00:46:38;;;;;;;3.83;0.60;;;15.70;67.30;;;;;;5055519;28;20535;-74
2022/05/13 00:49:07;;;;;;;5.57;0.63;;;15.60;67.00;;;;;;5056383;28;20473;-74
2022/05/13 00:51:36;;;;;;;6.18;0.60;;;15.40;67.20;;;;;;5055285;28;20033;-74
2022/05/13 00:54:04;;;;;;;3.13;0.45;;;15.30;67.50;;;;;;5055020;28;20024;-74
2022/05/13 00:56:30;;;;;;;6.15;0.70;;;15.20;67.90;;;;;;5054680;28;20392;-74
2022/05/13 00:58:59;;;;;;;6.07;0.50;;;15.10;68.20;;;;;;5055237;28;20032;-74
2022/05/13 01:01:24;;;;;;;7.70;0.77;;;15.10;68.40;;;;;;5054821;28;20100;-74
2022/05/13 01:03:50;;;;;;;7.13;1.13;;;15.10;68.30;;;;;;5054777;28;20063;-74
2022/05/13 01:06:24;;;;;;;3.50;0.80;;;15.10;68.50;;;;;;5054799;28;20041;-74
2022/05/13 01:08:50;;;;;;;5.05;0.70;;;15.10;68.70;;;;;;5055076;28;20021;-74
2022/05/13 01:11:23;;;;;;;7.63;0.50;;;15.10;69.00;;;;;;5054566;28;20083;-74
2022/05/13 01:13:51;;;;;;;;;;;15.00;68.90;;;;;;5055006;28;20392;-74
2022/05/13 01:16:16;;;;;;;5.88;0.90;;;15.10;69.10;;;;;;5054383;28;20389;-74
2022/05/13 01:18:43;;;;;;;3.30;0.50;;;15.10;69.10;;;;;;5054539;28;20052;-74
2022/05/13 01:21:13;;;;;;;4.97;1.02;;;15.00;69.40;;;;;;5054848;28;20101;-74
2022/05/13 01:23:42;;;;;;;2.78;0.32;;;15.00;69.70;;;;;;5054542;28;20024;-74
2022/05/13 01:26:12;;;;;;;5.45;0.47;;;15.00;69.70;;;;;;5054500;28;20029;-74
2022/05/13 01:28:42;;;;;;;5.45;0.77;;;15.00;69.80;;;;;;5054378;28;20033;-74
2022/05/13 01:31:12;;;;;;;3.13;0.57;;;14.90;70.10;;;;;;5054303;28;20469;-74
2022/05/13 01:33:38;;;;;;;3.08;0.70;;;15.00;70.10;;;;;;5053597;28;20021;-74
2022/05/13 01:36:06;;;;;;;4.30;0.60;;;14.90;70.30;;;;;;5054244;28;20075;-74
2022/05/13 01:38:35;;;;;;;9.95;0.80;;;14.90;70.40;;;;;;5053901;28;20485;-73
2022/05/13 01:41:02;;;;;;;4.50;0.88;;;15.00;70.50;;;;;;5054055;28;20021;-74
2022/05/13 01:43:29;;;;;;;4.45;0.60;;;15.00;70.70;;;;;;5054074;28;20461;-74
2022/05/13 01:45:56;;;;;;;5.50;0.70;;;15.00;70.80;;;;;;5054092;28;20029;-74
2022/05/13 01:48:21;;;;;;;4.80;0.60;;;15.00;70.80;;;;;;5054006;28;20473;-74
2022/05/13 01:50:47;;;;;;;6.10;0.70;;;15.00;70.90;;;;;;5054341;28;20021;-74
2022/05/13 01:53:13;;;;;;;6.75;1.17;;;15.00;71.00;;;;;;5053791;28;20496;-74
2022/05/13 01:55:42;;;;;;;5.25;0.70;;;15.10;71.20;;;;;;5054043;28;20028;-74
2022/05/13 01:58:10;;;;;;;6.15;1.05;;;15.10;71.40;;;;;;5053857;28;20041;-74
2022/05/13 02:00:35;;;;;;;3.78;0.60;;;15.10;71.40;;;;;;5053677;28;20052;-74
2022/05/13 02:05:45;;;;;;;5.40;0.88;;;15.00;71.90;;;;;;5053995;28;20024;-74
2022/05/13 02:08:10;;;;;;;5.57;0.70;;;14.70;72.40;;;;;;5053305;28;20017;-74
2022/05/13 02:10:36;;;;;;;4.97;0.85;;;14.60;72.80;;;;;;5053823;28;20074;-74
2022/05/13 02:13:01;;;;;;;3.97;0.90;;;14.60;73.20;;;;;;5053985;28;20452;-74
2022/05/13 02:15:27;;;;;;;6.25;0.90;;;14.50;73.20;;;;;;5053783;28;20021;-74
2022/05/13 02:17:53;;;;;;;6.35;1.05;;;14.50;73.30;;;;;;5053742;28;20179;-74
2022/05/13 02:20:18;;;;;;;8.35;1.00;;;14.50;73.40;;;;;;5053458;28;20124;-74
2022/05/13 02:22:44;;;;;;;5.85;1.00;;;14.50;73.70;;;;;;5053401;28;20025;-73
2022/05/13 02:25:10;;;;;;;6.18;0.85;;;14.40;73.80;;;;;;5053378;28;20025;-73
2022/05/13 02:27:36;;;;;;;6.65;0.80;;;14.40;74.30;;;;;;5053349;28;20021;-73
2022/05/13 02:30:03;;;;;;;5.95;0.82;;;14.30;74.40;;;;;;5053475;28;20035;-73
2022/05/13 02:32:28;;;;;;;8.60;1.17;;;14.30;74.70;;;;;;5053044;28;20033;-73
2022/05/13 02:34:54;;;;;;;3.80;0.65;;;14.30;74.90;;;;;;5053552;28;20483;-73
2022/05/13 02:37:20;;;;;;;5.00;0.70;;;14.30;75.40;;;;;;5053049;28;20037;-73
2022/05/13 02:39:45;;;;;;;5.43;0.90;;;14.20;75.70;;;;;;5053190;28;20021;-73
2022/05/13 02:42:11;;;;;;;9.25;1.38;;;14.10;75.90;;;;;;5053170;28;20112;-73
2022/05/13 02:44:36;;;;;;;4.05;0.63;;;14.20;76.40;;;;;;5052940;28;20025;-73
2022/05/13 02:47:02;;;;;;;4.57;0.77;;;14.20;76.50;;;;;;5052835;28;20060;-73
2022/05/13 02:49:28;;;;;;;6.22;0.95;;;14.20;76.80;;;;;;5053254;28;20039;-73
2022/05/13 02:51:54;;;;;;;5.53;1.13;;;14.30;77.00;;;;;;5053134;28;20049;-72
2022/05/13 02:54:19;;;;;;;7.35;1.10;;;14.30;77.20;;;;;;5053034;28;20032;-73
2022/05/13 02:56:45;;;;;;;8.27;1.08;;;14.30;77.30;;;;;;5052894;28;20029;-74
2022/05/13 02:59:10;;;;;;;6.93;1.20;;;14.40;77.60;;;;;;5053161;28;20025;-74
2022/05/13 03:01:37;;;;;;;6.13;1.27;;;14.30;78.00;;;;;;5053121;28;20361;-73
2022/05/13 03:04:03;;;;;;;8.02;1.50;;;14.30;78.20;;;;;;5052872;28;20032;-74
2022/05/13 03:06:29;;;;;;;6.13;1.55;;;14.20;78.30;;;;;;5052926;28;20598;-73
2022/05/13 03:08:55;;;;;;;10.13;1.45;;;14.20;78.80;;;;;;5052912;28;20063;-73
2022/05/13 03:11:21;;;;;;;8.52;1.52;;;14.20;79.20;;;;;;5052940;28;20048;-73
2022/05/13 03:13:51;;;;;;;12.93;1.98;;;14.30;79.40;;;;;;5052881;28;20420;-74
2022/05/13 03:16:23;;;;;;;11.65;2.28;;;14.30;79.70;;;;;;5053100;28;20061;-73
2022/05/13 03:18:55;;;;;;;7.40;1.95;;;14.30;79.80;;;;;;5053114;28;20025;-74
2022/05/13 03:21:22;;;;;;;8.57;1.75;;;14.40;80.10;;;;;;5052914;28;20079;-74
2022/05/13 03:23:47;;;;;;;15.00;2.45;;;14.30;80.20;;;;;;5053019;28;20029;-73
2022/05/13 03:26:16;;;;;;;11.63;2.30;;;14.40;80.50;;;;;;5053100;28;20028;-74
2022/05/13 03:28:42;;;;;;;9.48;2.42;;;14.30;80.80;;;;;;5052712;28;20024;-74
2022/05/13 03:31:08;;;;;;;10.80;3.03;;;14.20;81.40;;;;;;5052771;28;20025;-74
2022/05/13 03:33:34;;;;;;;9.23;2.20;;;14.30;81.70;;;;;;5052928;28;20100;-73
2022/05/13 03:36:00;;;;;;;12.75;2.25;;;14.30;82.00;;;;;;5052404;28;20032;-73
2022/05/13 03:38:26;;;;;;;8.50;2.75;;;14.20;82.30;;;;;;5052876;28;20033;-74
2022/05/13 03:40:52;;;;;;;10.95;2.75;;;14.30;82.60;;;;;;5052651;28;20036;-74
2022/05/13 03:43:18;;;;;;;12.52;2.85;;;14.20;83.00;;;;;;5052881;28;20111;-74
2022/05/13 03:45:44;;;;;;;9.73;2.38;;;14.30;83.20;;;;;;5052609;28;20021;-74
2022/05/13 03:48:10;;;;;;;11.90;2.88;;;14.30;83.50;;;;;;5052093;28;20049;-73
2022/05/13 03:50:39;;;;;;;11.20;2.95;;;14.30;84.10;;;;;;5052896;28;20021;-73
2022/05/13 03:53:05;;;;;;;9.32;2.30;;;14.20;84.50;;;;;;5052626;28;20086;-74
2022/05/13 03:55:31;;;;;;;10.60;2.97;;;14.20;85.00;;;;;;5052680;28;20468;-73
2022/05/13 03:57:57;;;;;;;13.50;3.10;;;14.20;85.20;;;;;;5055424;28;20523;-73
2022/05/13 04:00:23;;;;;;;10.30;3.25;;;14.10;85.70;;;;;;5055785;28;20025;-74
2022/05/13 04:02:49;;;;;;;13.82;2.85;;;14.10;85.90;;;;;;5056092;28;20441;-74
2022/05/13 04:10:45;;;;;;;10.70;3.20;;;14.10;86.60;;;;;;5055983;28;20402;-73
2022/05/13 04:16:04;;;;;;;12.10;3.20;;;13.90;87.40;;;;;;5056191;28;20032;-73
2022/05/13 04:18:31;;;;;;;16.17;3.83;;;13.80;87.70;;;;;;5055789;28;20037;-73
2022/05/13 04:20:56;;;;;;;12.18;2.83;;;13.70;88.50;;;;;;5055630;28;20062;-73
2022/05/13 04:23:23;;;;;;;15.15;3.20;;;13.70;89.70;;;;;;5055758;28;20468;-74
2022/05/13 04:25:48;;;;;;;15.15;3.63;;;13.60;89.80;;;;;;5055658;28;20021;-72
2022/05/13 04:28:14;;;;;;;13.93;3.72;;;13.50;90.00;;;;;;5055908;28;20017;-73
2022/05/13 04:30:40;;;;;;;12.35;3.78;;;13.50;90.20;;;;;;5055625;28;20519;-74
2022/05/13 04:33:05;;;;;;;13.00;3.72;;;13.50;90.20;;;;;;5055359;28;20384;-74
2022/05/13 04:35:31;;;;;;;14.18;3.83;;;13.50;90.30;;;;;;5055415;28;20062;-74
2022/05/13 04:37:57;;;;;;;14.02;3.90;;;13.60;90.40;;;;;;5055269;28;20040;-74
2022/05/13 04:40:23;;;;;;;17.67;4.18;;;13.50;90.50;;;;;;5055597;28;20028;-74
2022/05/13 04:42:52;;;;;;;18.33;4.30;;;13.50;90.70;;;;;;5055282;28;20104;-74
2022/05/13 04:45:23;;;;;;;21.25;4.70;;;13.50;90.80;;;;;;5054929;28;20108;-74
2022/05/13 04:50:40;;;;;;;15.00;4.10;;;13.50;91.00;;;;;;5055088;28;20091;-73
2022/05/13 04:53:07;;;;;;;15.70;4.07;;;13.50;91.10;;;;;;5055266;28;20033;-74
2022/05/13 04:55:34;;;;;;;14.90;4.22;;;13.50;91.30;;;;;;5054941;28;20029;-73
2022/05/13 04:57:59;;;;;;;15.48;4.60;;;13.50;91.40;;;;;;5054948;28;20037;-73
2022/05/13 05:00:26;;;;;;;17.60;4.55;;;13.50;91.50;;;;;;5054994;28;20021;-73
2022/05/13 05:02:51;;;;;;;19.58;4.63;;;13.50;91.60;;;;;;5054785;28;20025;-73
2022/05/13 05:05:17;;;;;;;15.43;4.95;;;13.50;91.70;;;;;;5054986;28;20094;-73
2022/05/13 05:07:43;;;;;;;11.77;3.90;;;13.50;91.80;;;;;;5054577;28;20429;-73
2022/05/13 05:10:10;;;;;;;19.65;5.03;;;13.50;91.90;;;;;;5055002;28;20056;-73
2022/05/13 05:12:37;;;;;;;16.02;4.55;;;13.50;91.90;;;;;;5054864;28;20025;-73
2022/05/13 05:15:03;;;;;;;14.65;4.47;;;13.60;92.00;;;;;;5054760;28;20028;-73
2022/05/13 05:17:28;;;;;;;20.30;5.63;;;13.60;92.10;;;;;;5054156;28;20087;-73
2022/05/13 05:19:54;;;;;;;15.35;5.22;;;13.70;92.20;;;;;;5054659;28;20060;-73
2022/05/13 05:22:20;;;;;;;21.67;5.30;;;13.70;92.30;;;;;;5054679;28;20485;-73
2022/05/13 05:24:46;;;;;;;13.48;4.43;;;13.80;92.40;;;;;;5054398;28;20020;-73
2022/05/13 05:27:12;;;;;;;19.83;5.75;;;13.80;92.50;;;;;;5054021;28;20108;-73
2022/05/13 05:29:38;;;;;;;16.73;6.00;;;13.90;92.50;;;;;;5054052;28;20082;-73
2022/05/13 05:32:04;;;;;;;18.15;6.07;;;13.90;92.30;;;;;;5053865;28;20033;-73
2022/05/13 05:34:30;;;;;;;14.25;5.20;;;14.00;92.40;;;;;;5053935;28;20099;-73
2022/05/13 05:36:56;;;;;;;17.33;5.43;;;14.10;92.40;;;;;;5054242;28;20474;-74
2022/05/13 05:39:22;;;;;;;17.75;5.80;;;14.10;92.50;;;;;;5053989;28;20488;-74
2022/05/13 05:41:47;;;;;;;23.35;6.80;;;14.20;92.40;;;;;;5054067;28;20036;-74
2022/05/13 05:44:13;;;;;;;20.33;7.00;;;14.10;92.40;;;;;;5053958;28;20029;-74
2022/05/13 05:46:39;;;;;;;14.40;5.65;;;14.10;92.40;;;;;;5053552;28;20037;-74
2022/05/13 05:49:05;;;;;;;19.30;6.57;;;14.10;92.50;;;;;;5053921;28;20037;-74
2022/05/13 05:51:31;;;;;;;17.85;6.28;;;14.10;92.80;;;;;;5053963;28;20048;-74
2022/05/13 05:59:26;;;;;;;21.42;6.43;;;13.90;93.30;;;;;;5053745;28;20090;-74
2022/05/13 06:01:51;;;;;;;19.58;7.18;;;14.00;93.70;;;;;;5053894;28;20025;-74
2022/05/13 06:04:17;;;;;;;23.48;7.20;;;14.10;93.50;;;;;;5053610;28;20380;-74
2022/05/13 06:06:43;;;;;;;25.05;7.13;;;14.00;93.50;;;;;;5053517;28;20055;-73
2022/05/13 06:09:09;;;;;;;24.75;6.75;;;14.00;93.60;;;;;;5053791;28;20037;-74
2022/05/13 06:11:36;;;;;;;19.08;7.10;;;14.00;93.50;;;;;;5053749;28;20025;-74
2022/05/13 06:14:03;;;;;;;20.55;7.50;;;14.00;93.70;;;;;;5053276;28;20051;-73
2022/05/13 06:16:30;;;;;;;24.48;7.57;;;14.10;93.80;;;;;;5053177;28;20556;-73
2022/05/13 06:19:00;;;;;;;27.58;7.95;;;14.10;93.70;;;;;;5052912;28;20040;-74
2022/05/13 06:21:30;;;;;;;24.15;6.80;;;14.10;93.90;;;;;;5053386;28;20480;-74
2022/05/13 06:23:55;;;;;;;22.42;7.43;;;14.20;93.80;;;;;;5053401;28;20029;-73
2022/05/13 06:26:21;;;;;;;23.42;7.30;;;14.30;93.90;;;;;;5053373;28;20070;-73
2022/05/13 06:28:47;;;;;;;20.77;7.80;;;14.30;93.90;;;;;;5053292;28;20354;-74
2022/05/13 06:31:13;;;;;;;27.77;7.47;;;14.40;93.90;;;;;;5053433;28;20029;-73
2022/05/13 06:33:39;;;;;;;23.50;8.13;;;14.40;93.90;;;;;;5053557;28;20063;-74
2022/05/13 06:36:05;;;;;;;18.98;7.20;;;14.50;94.30;;;;;;5053413;28;20392;-74
2022/05/13 06:38:31;;;;;;;23.90;7.80;;;14.50;94.00;;;;;;5052929;28;20029;-74
2022/05/13 06:40:57;;;;;;;18.33;6.88;;;14.60;93.90;;;;;;5053009;28;20372;-74
2022/05/13 06:43:23;;;;;;;24.92;7.43;;;14.60;94.10;;;;;;5052996;28;20025;-74
2022/05/13 06:45:49;;;;;;;16.63;6.53;;;14.70;94.20;;;;;;5053281;28;20021;-74
2022/05/13 06:48:15;;;;;;;22.40;6.88;;;14.70;94.10;;;;;;5053247;28;20056;-74
2022/05/13 06:50:43;;;;;;;22.17;7.65;;;14.80;94.20;;;;;;5052484;28;20396;-74
2022/05/13 06:53:09;;;;;;;23.00;7.95;;;14.80;94.30;;;;;;5053260;28;20021;-74
2022/05/13 06:55:35;;;;;;;24.73;7.63;;;14.80;93.90;;;;;;5053273;28;20025;-73
2022/05/13 06:58:00;;;;;;;19.48;6.70;;;14.80;93.80;;;;;;5052966;28;20037;-74
2022/05/13 07:00:26;;;;;;;19.90;7.38;;;14.80;94.00;;;;;;5052953;28;20025;-73
2022/05/13 07:02:52;;;;;;;20.58;8.27;;;14.80;94.00;;;;;;5052808;28;20103;-73
2022/05/13 07:05:20;;;;;;;20.63;7.45;;;14.90;93.90;;;;;;5052601;28;20021;-73
2022/05/13 07:07:46;;;;;;;19.13;7.00;;;14.90;93.80;;;;;;5052834;28;20077;-73
2022/05/13 07:10:12;;;;;;;24.67;7.63;;;15.00;93.80;;;;;;5052878;28;20025;-73
2022/05/13 07:12:39;;;;;;;23.70;7.15;;;15.00;93.60;;;;;;5052751;28;20024;-73
2022/05/13 07:15:10;;;;;;;16.92;7.18;;;15.00;93.50;;;;;;5053206;28;20025;-73
2022/05/13 07:17:37;;;;;;;22.13;6.90;;;15.10;93.70;;;;;;5052749;28;20041;-73
2022/05/13 07:20:03;;;;;;;21.08;7.22;;;15.20;93.60;;;;;;5052883;28;20083;-73
2022/05/13 07:22:29;;;;;;;24.25;8.27;;;15.20;93.40;;;;;;5052849;28;20109;-74
2022/05/13 07:24:55;;;;;;;16.02;6.57;;;15.20;93.20;;;;;;5052502;28;20052;-74
2022/05/13 07:27:20;;;;;;;24.88;8.43;;;15.20;93.30;;;;;;5052856;28;20029;-74
2022/05/13 07:29:46;;;;;;;21.27;6.97;;;15.30;93.30;;;;;;5052448;28;20017;-73
2022/05/13 07:32:12;;;;;;;25.30;7.00;;;15.30;92.90;;;;;;5054452;28;20044;-73
2022/05/13 07:34:37;;;;;;;21.60;7.80;;;15.30;92.70;;;;;;5056467;28;20104;-73
2022/05/13 07:37:03;;;;;;;22.08;7.15;;;15.30;92.60;;;;;;5055972;28;20037;-73
2022/05/13 07:42:13;;;;;;;24.52;7.85;;;15.60;92.80;;;;;;5056110;28;20035;-73
2022/05/13 07:44:39;;;;;;;20.10;6.18;;;15.80;92.50;;;;;;5056191;28;20104;-73
2022/05/13 07:47:07;;;;;;;18.00;6.13;;;15.90;91.80;;;;;;5055699;28;20072;-73
2022/05/13 07:49:34;;;;;;;18.40;5.93;;;15.90;91.30;;;;;;5055973;28;20025;-74
2022/05/13 07:52:00;;;;;;;18.95;6.47;;;15.90;91.20;;;;;;5055733;28;20036;-74
2022/05/13 07:54:26;;;;;;;21.60;6.60;;;15.90;91.10;;;;;;5056227;28;20021;-74
2022/05/13 07:56:51;;;;;;;20.67;6.47;;;15.90;91.30;;;;;;5056294;28;20052;-74
2022/05/13 07:59:17;;;;;;;23.50;7.25;;;15.90;91.60;;;;;;5056355;28;20112;-74
2022/05/13 08:01:43;;;;;;;18.10;7.45;;;15.80;91.30;;;;;;5056140;28;20029;-73
2022/05/13 08:04:08;;;;;;;17.27;7.55;;;15.80;91.70;;;;;;5056375;28;20449;-73
2022/05/13 08:06:34;;;;;;;20.70;7.93;;;15.80;91.70;;;;;;5056094;28;20044;-73
2022/05/13 08:08:59;;;;;;;23.40;7.72;;;15.90;91.70;;;;;;5055944;28;20472;-74
2022/05/13 08:11:29;;;;;;;18.60;6.85;;;15.90;91.30;;;;;;5055757;28;20511;-73
2022/05/13 08:13:56;;;;;;;16.23;7.22;;;15.80;91.20;;;;;;5056009;28;20029;-73
2022/05/13 08:16:26;;;;;;;21.88;7.25;;;15.80;91.40;;;;;;5055711;28;20029;-73
2022/05/13 08:18:53;;;;;;;18.80;6.50;;;15.80;91.60;;;;;;5055570;28;20033;-73
2022/05/13 08:21:19;;;;;;;19.90;6.20;;;15.70;91.60;;;;;;5055719;28;20380;-74
2022/05/13 08:23:45;;;;;;;14.07;5.78;;;15.80;91.70;;;;;;5055570;28;20029;-74
2022/05/13 08:26:11;;;;;;;16.38;5.15;;;15.80;91.70;;;;;;5055858;28;20024;-73
2022/05/13 08:28:39;;;;;;;16.50;5.03;;;15.70;91.10;;;;;;5055826;28;20039;-74
2022/05/13 08:31:05;;;;;;;17.00;5.15;;;15.70;91.40;;;;;;5055739;28;20039;-74
2022/05/13 08:33:31;;;;;;;20.05;5.22;;;15.80;91.50;;;;;;5055251;28;20461;-74
2022/05/13 08:35:59;;;;;;;14.85;4.50;;;16.00;91.40;;;;;;5055669;28;20029;-74
2022/05/13 08:38:28;;;;;;;14.43;4.25;;;16.10;91.30;;;;;;5055174;28;20044;-74
2022/05/13 08:41:40;;;;;;;17.83;4.80;;;16.10;91.10;;;;;;5055624;28;20028;-74
2022/05/13 08:44:08;;;;;;;15.52;4.20;;;16.10;90.70;;;;;;5041352;28;20542;-74
2022/05/13 08:46:42;;;;;;;16.77;4.65;;;16.10;90.50;;;;;;5054651;28;20404;-74
2022/05/13 08:49:23;;;;;;;13.55;4.13;;;16.00;90.50;;;;;;5054812;28;20051;-73
2022/05/13 08:54:56;;;;;;;15.43;4.32;;;16.00;90.80;;;;;;5054734;28;20051;-74
2022/05/13 08:57:26;;;;;;;17.02;4.30;;;16.00;91.00;;;;;;5054935;28;20039;-74
2022/05/13 08:59:58;;;;;;;10.43;2.78;;;16.10;90.60;;;;;;5055420;28;20201;-74
2022/05/13 09:02:31;;;;;;;8.65;1.80;;;16.40;90.00;;;;;;5055062;28;20049;-74
2022/05/13 09:05:36;;;;;;;7.82;1.48;;;16.50;86.20;;;;;;5054583;28;20087;-74
2022/05/13 09:08:04;;;;;;;7.30;0.90;;;16.50;83.30;;;;;;5036780;28;20079;-74
2022/05/13 09:10:31;;;;;;;6.13;0.60;;;16.50;83.00;;;;;;5054979;28;20021;-74
2022/05/13 09:13:48;;;;;;;3.40;0.63;;;16.60;82.40;;;;;;5054845;28;20090;-74
2022/05/13 09:16:23;;;;;;;7.90;0.65;;;16.70;81.10;;;;;;4992940;28;20030;-74
2022/05/13 09:19:01;;;;;;;7.55;0.60;;;16.80;79.20;;;;;;4993211;28;20034;-74
2022/05/13 09:21:27;;;;;;;8.40;1.02;;;16.60;79.00;;;;;;5036600;28;20056;-74
2022/05/13 09:23:53;;;;;;;6.30;0.43;;;16.70;79.90;;;;;;5054642;28;20437;-74
2022/05/13 09:26:24;;;;;;;4.22;0.63;;;16.80;79.60;;;;;;5054527;28;20062;-74
2022/05/13 09:29:12;;;;;;;7.20;0.65;;;17.20;79.50;;;;;;5054435;28;20059;-74
2022/05/13 09:32:12;;;;;;;7.18;0.60;;;17.40;75.90;;;;;;5054233;28;20502;-73
2022/05/13 09:34:48;;;;;;;6.05;0.73;;;17.70;74.70;;;;;;5043710;28;20095;-73
2022/05/13 09:37:25;;;;;;;3.67;0.60;;;17.70;74.50;;;;;;5054374;28;20380;-74
2022/05/13 09:40:13;;;;;;;7.20;0.52;;;17.80;75.20;;;;;;5054186;28;20411;-73
2022/05/13 09:42:50;;;;;;;3.97;0.77;;;17.90;76.20;;;;;;5054307;28;20040;-73
2022/05/13 09:45:19;;;;;;;8.02;0.90;;;18.10;75.00;;;;;;5053869;28;20028;-73
2022/05/13 09:48:05;;;;;;;5.13;0.90;;;18.00;74.90;;;;;;5053525;28;20508;-74
2022/05/13 09:50:34;;;;;;;5.40;0.70;;;18.00;73.60;;;;;;5043258;28;20033;-74
2022/05/13 09:53:20;;;;;;;4.47;0.55;;;18.00;73.70;;;;;;5054025;28;20031;-74
2022/05/13 09:55:47;;;;;;;8.00;0.65;;;18.00;73.40;;;;;;5053345;28;20028;-73
2022/05/13 09:58:17;;;;;;;6.40;0.65;;;17.70;73.30;;;;;;5053999;28;20045;-74
2022/05/13 10:00:46;;;;;;;5.18;0.57;;;17.60;73.80;;;;;;5053606;28;20032;-74
2022/05/13 10:03:21;;;;;;;9.65;1.58;;;17.40;74.10;;;;;;5054019;28;20048;-75
2022/05/13 10:06:20;;;;;;;5.45;0.63;;;17.30;74.80;;;;;;5053765;28;20017;-78
2022/05/13 10:08:55;;;;;;;4.53;0.70;;;17.30;76.10;;;;;;5053698;28;20025;-79
2022/05/13 10:14:49;;;;;;;5.22;0.80;;;17.30;74.70;;;;;;5053784;28;20032;-74
2022/05/13 10:17:22;;;;;;;6.45;0.80;;;17.30;75.20;;;;;;4991774;28;20038;-73
2022/05/13 10:19:52;;;;;;;7.70;1.02;;;17.30;74.90;;;;;;4991787;28;20101;-74
2022/05/13 10:22:46;;;;;;;6.82;1.10;;;17.20;76.10;;;;;;5025255;28;20127;-74
2022/05/13 10:25:25;;;;;;;8.63;0.85;;;17.20;77.00;;;;;;5047079;28;20503;-74
2022/05/13 10:28:03;;;;;;;7.63;1.08;;;17.40;76.20;;;;;;5053494;28;20021;-74
2022/05/13 10:30:32;;;;;;;7.90;0.85;;;17.70;77.10;;;;;;5053353;28;20409;-74
2022/05/13 10:33:13;;;;;;;6.40;0.60;;;17.90;73.30;;;;;;5053057;28;20383;-75
2022/05/13 10:36:05;;;;;;;3.58;0.55;;;17.90;72.50;;;;;;5053196;28;20424;-73
2022/05/13 10:38:46;;;;;;;8.93;1.27;;;17.90;72.30;;;;;;5044714;28;20106;-74
2022/05/13 10:41:26;;;;;;;5.72;0.80;;;17.90;71.80;;;;;;5052994;28;20021;-74
2022/05/13 10:44:13;;;;;;;4.25;0.73;;;18.00;71.70;;;;;;5052772;28;20083;-74
2022/05/13 10:46:52;;;;;;;5.03;0.70;;;18.20;72.20;;;;;;5052324;28;20045;-74
2022/05/13 10:49:18;;;;;;;6.43;0.70;;;18.50;71.30;;;;;;5050577;28;20025;-74
2022/05/13 10:52:02;;;;;;;4.30;0.60;;;18.70;70.80;;;;;;5052723;28;20025;-74
2022/05/13 10:54:45;;;;;;;5.55;0.40;;;18.90;69.20;;;;;;5052752;28;20029;-74
2022/05/13 10:57:23;;;;;;;4.30;0.50;;;19.20;68.00;;;;;;5052679;28;20439;-74
2022/05/13 11:00:12;;;;;;;5.28;0.70;;;19.40;67.10;;;;;;5053018;28;20021;-74
2022/05/13 11:02:57;;;;;;;7.28;0.63;;;19.50;66.80;;;;;;5053595;28;20047;-74
2022/05/13 11:05:40;;;;;;;5.50;0.77;;;19.30;66.90;;;;;;5053575;28;20025;-74
2022/05/13 11:08:20;;;;;;;3.08;0.50;;;19.00;66.90;;;;;;5056938;28;20103;-74
2022/05/13 11:11:13;;;;;;;6.68;0.30;;;18.80;67.80;;;;;;5057132;28;20021;-74
2022/05/13 11:13:52;;;;;;;5.10;0.70;;;18.80;67.60;;;;;;5057287;28;20052;-74
2022/05/13 11:16:23;;;;;;;3.20;0.47;;;18.60;67.60;;;;;;5057017;28;20155;-74
2022/05/13 11:18:56;;;;;;;6.00;0.85;;;18.60;68.20;;;;;;5056998;28;20025;-74
2022/05/13 11:21:21;;;;;;;;;;;18.70;67.20;;;;;;5057194;28;20028;-74
2022/05/13 11:27:38;;;;;;;4.90;0.70;;;18.80;68.30;;;;;;5056865;28;20100;-74
2022/05/13 11:30:17;;;;;;;4.75;0.52;;;19.10;68.00;;;;;;5056755;28;20081;-74
2022/05/13 11:33:01;;;;;;;4.10;0.60;;;19.10;66.90;;;;;;5056476;28;20036;-74
2022/05/13 11:35:54;;;;;;;5.40;0.55;;;19.10;67.40;;;;;;5056285;28;20021;-74
2022/05/13 11:38:30;;;;;;;2.22;0.43;;;19.10;66.50;;;;;;5055951;28;20061;-74
2022/05/13 11:41:10;;;;;;;4.85;0.90;;;19.00;66.80;;;;;;5056440;28;20048;-74
2022/05/13 11:44:04;;;;;;;6.13;0.75;;;19.00;67.00;;;;;;5056533;28;20035;-75
2022/05/13 11:46:39;;;;;;;4.03;0.75;;;19.00;65.70;;;;;;5055955;28;20162;-74
2022/05/13 11:49:27;;;;;;;5.60;1.10;;;19.00;66.10;;;;;;5056085;28;20067;-74
2022/05/13 11:51:54;;;;;;;5.80;0.65;;;19.00;66.10;;;;;;5055946;28;20029;-75
2022/05/13 11:54:28;;;;;;;4.68;0.93;;;19.10;67.30;;;;;;5055767;28;20490;-74
2022/05/13 11:57:16;;;;;;;8.88;0.80;;;19.20;67.00;;;;;;5055734;28;20028;-73
2022/05/13 12:00:15;;;;;;;3.63;1.02;;;19.20;67.30;;;;;;5045490;28;20112;-74
2022/05/13 12:02:53;;;;;;;5.22;0.82;;;19.10;65.90;;;;;;5055530;28;20029;-74
2022/05/13 12:05:18;;;;;;;5.35;0.52;;;19.00;66.50;;;;;;5055609;28;20017;-74
2022/05/13 12:07:52;;;;;;;4.15;0.60;;;19.10;66.20;;;;;;5055645;28;20036;-74
2022/05/13 12:10:26;;;;;;;4.10;0.60;;;19.20;65.90;;;;;;5055670;28;20392;-74
2022/05/13 12:13:13;;;;;;;6.47;0.63;;;19.20;64.90;;;;;;5055967;28;20035;-74
2022/05/13 12:16:12;;;;;;;4.05;0.40;;;19.10;64.30;;;;;;5055529;28;20072;-73
2022/05/13 12:18:40;;;;;;;5.00;0.60;;;18.90;65.30;;;;;;5054568;28;20044;-74
2022/05/13 12:21:33;;;;;;;5.03;0.60;;;18.90;66.00;;;;;;5055633;28;20036;-75
2022/05/13 12:24:11;;;;;;;5.57;0.93;;;19.00;65.90;;;;;;5055290;28;20100;-73
2022/05/13 12:26:52;;;;;;;3.17;0.50;;;19.00;65.60;;;;;;5055428;28;20029;-74
2022/05/13 12:30:02;;;;;;;2.75;0.50;;;19.10;65.80;;;;;;5055704;28;20030;-74
2022/05/13 12:32:44;;;;;;;5.07;1.10;;;19.10;66.40;;;;;;5026996;28;20036;-74
2022/05/13 12:38:10;;;;;;;8.32;0.77;;;19.00;64.90;;;;;;5055008;28;20403;-74
2022/05/13 12:40:50;;;;;;;6.78;1.02;;;19.00;65.10;;;;;;5055340;28;20021;-74
2022/05/13 12:43:22;;;;;;;5.05;0.50;;;18.90;65.50;;;;;;5055416;28;20033;-74
2022/05/13 12:46:16;;;;;;;10.77;0.97;;;18.80;64.70;;;;;;5054631;28;20469;-74
2022/05/13 12:49:32;;;;;;;5.35;0.43;;;18.80;65.00;;;;;;5055331;28;20057;-74
2022/05/13 12:52:13;;;;;;;6.47;0.40;;;19.00;65.10;;;;;;5029053;28;20036;-75
2022/05/13 12:54:47;;;;;;;5.75;0.40;;;19.10;63.60;;;;;;5055170;28;20029;-74
2022/05/13 12:57:23;;;;;;;4.03;0.45;;;19.30;63.60;;;;;;5054784;28;20505;-74
2022/05/13 12:59:53;;;;;;;5.03;0.40;;;19.40;62.10;;;;;;5054952;28;20515;-75
2022/05/13 13:02:23;;;;;;;5.18;0.60;;;19.40;62.80;;;;;;5054260;28;20027;-74
2022/05/13 13:05:13;;;;;;;2.40;0.40;;;19.40;62.40;;;;;;5054613;28;20066;-74
2022/05/13 13:07:39;;;;;;;2.75;0.60;;;19.40;63.00;;;;;;5054004;28;20099;-74
2022/05/13 13:10:06;;;;;;;2.60;0.32;;;19.50;62.60;;;;;;5054865;28;20468;-74
2022/05/13 13:12:42;;;;;;;8.40;0.50;;;19.50;62.30;;;;;;5053728;28;20018;-74
2022/05/13 13:15:25;;;;;;;3.65;0.40;;;19.40;61.30;;;;;;5054669;28;20346;-74
2022/05/13 13:17:57;;;;;;;2.85;0.40;;;19.50;61.80;;;;;;5053773;28;20036;-74
2022/05/13 13:20:26;;;;;;;5.22;0.75;;;19.60;61.80;;;;;;5053942;28;20029;-74
2022/05/13 13:23:01;;;;;;;5.20;0.90;;;19.60;61.30;;;;;;5054011;28;20039;-75
2022/05/13 13:25:27;;;;;;;5.30;0.88;;;19.60;61.90;;;;;;5053910;28;20021;-75
2022/05/13 13:28:00;;;;;;;3.72;0.50;;;19.60;62.00;;;;;;5054164;28;20349;-75
2022/05/13 13:30:28;;;;;;;3.60;0.50;;;19.60;61.30;;;;;;5053020;28;20028;-74
2022/05/13 13:32:54;;;;;;;5.80;0.75;;;19.70;61.80;;;;;;5053917;28;20029;-74
2022/05/13 13:35:32;;;;;;;4.53;0.95;;;19.80;61.10;;;;;;5054074;28;20025;-74
2022/05/13 13:37:59;;;;;;;7.38;1.60;;;19.70;61.00;;;;;;5053740;28;20037;-74